createdAt,value
2019-01-16T00:00:07.140Z,27.62
2019-01-16T00:03:00.262Z,29.00
2019-01-16T00:05:48.082Z,35.23
2019-01-16T00:08:30.613Z,30.60
2019-01-16T00:11:16.583Z,29.15
2019-01-16T00:14:02.778Z,31.15
2019-01-16T00:16:48.934Z,30.17
2019-01-16T00:19:34.932Z,30.43
2019-01-16T00:22:34.801Z,30.20
2019-01-16T00:25:20.594Z,31.02
2019-01-16T00:28:13.911Z,30.23
2019-01-16T00:30:48.736Z,30.32
2019-01-16T00:33:51.333Z,25.83
2019-01-16T00:36:41.465Z,26.33
2019-01-16T00:39:27.811Z,25.02
2019-01-16T00:42:23.985Z,26.70
2019-01-16T00:45:10.078Z,24.80
2019-01-16T00:47:57.668Z,24.27
2019-01-16T00:50:44.790Z,21.68
2019-01-16T00:53:41.241Z,28.10
2019-01-16T00:56:27.847Z,26.35
2019-01-16T00:59:17.917Z,25.17
2019-01-16T01:02:08.055Z,26.33
2019-01-16T01:05:01.268Z,22.48
2019-01-16T01:08:03.690Z,21.35
2019-01-16T01:10:43.438Z,22.82
2019-01-16T01:13:33.464Z,22.17
2019-01-16T01:16:19.380Z,23.18
2019-01-16T01:19:25.497Z,24.85
2019-01-16T01:22:24.537Z,19.75
2019-01-16T01:25:10.571Z,22.87
2019-01-16T01:28:05.385Z,23.65
2019-01-16T01:31:04.818Z,25.60
2019-01-16T01:33:54.971Z,19.48
2019-01-16T01:36:40.898Z,18.95
2019-01-16T01:39:28.429Z,26.20
2019-01-16T01:42:14.934Z,19.60
2019-01-16T01:45:01.957Z,18.82
2019-01-16T01:48:04.855Z,19.77
2019-01-16T01:51:03.135Z,19.40
2019-01-16T01:53:56.337Z,22.85
2019-01-16T01:56:49.233Z,18.82
2019-01-16T01:59:42.902Z,15.85
2019-01-16T02:02:33.870Z,19.55
2019-01-16T02:05:19.886Z,17.95
2019-01-16T02:08:10.321Z,17.55
2019-01-16T02:11:03.749Z,21.85
2019-01-16T02:14:06.245Z,20.97
2019-01-16T02:16:52.053Z,19.25
2019-01-16T02:19:40.905Z,22.82
2019-01-16T02:22:28.277Z,22.95
2019-01-16T02:25:33.841Z,18.87
2019-01-16T02:28:19.786Z,18.48
2019-01-16T02:31:07.449Z,20.90
2019-01-16T02:34:08.499Z,15.85
2019-01-16T02:36:44.605Z,18.92
2019-01-16T02:39:27.128Z,21.45
2019-01-16T02:42:12.912Z,17.98
2019-01-16T02:44:59.259Z,20.10
2019-01-16T02:47:52.694Z,18.67
2019-01-16T02:50:27.748Z,17.62
2019-01-16T02:53:13.283Z,16.93
2019-01-16T02:56:16.841Z,18.07
2019-01-16T02:59:17.364Z,19.13
2019-01-16T03:02:07.533Z,16.23
2019-01-16T03:04:58.769Z,19.52
2019-01-16T03:08:00.346Z,19.98
2019-01-16T03:10:47.394Z,18.50
2019-01-16T03:13:24.578Z,17.62
2019-01-16T03:16:10.683Z,17.60
2019-01-16T03:19:04.662Z,16.90
2019-01-16T03:21:40.206Z,17.82
2019-01-16T03:24:25.567Z,15.90
2019-01-16T03:27:11.369Z,19.98
2019-01-16T03:30:13.856Z,16.80
2019-01-16T03:33:04.148Z,16.45
2019-01-16T03:35:50.038Z,19.70
2019-01-16T03:38:46.433Z,22.40
2019-01-16T03:41:35.743Z,17.07
2019-01-16T03:44:25.822Z,18.65
2019-01-16T03:47:13.682Z,18.05
2019-01-16T03:50:01.002Z,19.20
2019-01-16T03:53:01.548Z,16.30
2019-01-16T03:55:40.626Z,21.70
2019-01-16T03:58:46.161Z,18.12
2019-01-16T04:01:42.413Z,19.82
2019-01-16T04:04:41.949Z,22.77
2019-01-16T04:07:38.182Z,20.57
2019-01-16T04:10:25.607Z,21.70
2019-01-16T04:13:11.759Z,19.03
2019-01-16T04:15:59.190Z,19.20
2019-01-16T04:18:46.345Z,22.58
2019-01-16T04:21:28.770Z,19.35
2019-01-16T04:24:31.604Z,22.87
2019-01-16T04:27:17.550Z,19.17
2019-01-16T04:30:02.486Z,21.20
2019-01-16T04:32:52.404Z,24.27
2019-01-16T04:35:42.035Z,19.93
2019-01-16T04:38:36.909Z,23.00
2019-01-16T04:41:30.269Z,19.32
2019-01-16T04:44:09.783Z,22.15
2019-01-16T04:46:57.096Z,22.45
2019-01-16T04:49:54.554Z,22.35
2019-01-16T04:52:57.148Z,23.60
2019-01-16T04:55:56.489Z,24.10
2019-01-16T04:58:43.661Z,22.48
2019-01-16T05:01:42.810Z,23.73
2019-01-16T05:04:27.985Z,21.82
2019-01-16T05:07:21.658Z,22.27
2019-01-16T05:10:23.894Z,23.57
2019-01-16T05:13:15.611Z,21.65
2019-01-16T05:16:05.786Z,23.18
2019-01-16T05:18:51.781Z,19.87
2019-01-16T05:21:47.909Z,25.08
2019-01-16T05:24:31.925Z,25.30
2019-01-16T05:27:28.189Z,23.75
2019-01-16T05:30:18.058Z,27.27
2019-01-16T05:33:17.716Z,24.60
2019-01-16T05:36:13.074Z,19.92
2019-01-16T05:39:14.768Z,21.07
2019-01-16T05:42:10.950Z,22.22
2019-01-16T05:44:59.056Z,25.43
2019-01-16T05:47:52.232Z,24.45
2019-01-16T05:50:28.330Z,26.90
2019-01-16T05:53:16.173Z,24.55
2019-01-16T05:56:06.345Z,24.07
2019-01-16T05:58:43.124Z,24.75
2019-01-16T06:01:33.829Z,24.73
2019-01-16T06:04:30.201Z,25.12
2019-01-16T06:07:20.867Z,24.03
2019-01-16T06:10:07.262Z,26.93
2019-01-16T06:12:54.454Z,22.70
2019-01-16T06:15:51.065Z,21.60
2019-01-16T06:18:37.065Z,24.37
2019-01-16T06:21:24.177Z,24.63
2019-01-16T06:24:10.719Z,24.12
2019-01-16T06:27:00.769Z,24.52
2019-01-16T06:29:50.301Z,20.77
2019-01-16T06:32:53.398Z,22.80
2019-01-16T06:35:44.410Z,23.70
2019-01-16T06:38:38.082Z,22.25
2019-01-16T06:41:28.473Z,24.00
2019-01-16T06:44:16.158Z,23.62
2019-01-16T06:47:06.027Z,19.80
2019-01-16T06:49:52.117Z,19.75
2019-01-16T06:52:28.290Z,20.05
2019-01-16T06:55:18.123Z,24.77
2019-01-16T06:58:05.456Z,21.68
2019-01-16T07:00:46.187Z,22.82
2019-01-16T07:03:39.245Z,21.27
2019-01-16T07:06:25.355Z,22.60
2019-01-16T07:09:10.915Z,19.90
2019-01-16T07:12:04.666Z,21.75
2019-01-16T07:14:51.178Z,24.40
2019-01-16T07:17:37.170Z,27.15
2019-01-16T07:20:27.974Z,24.60
2019-01-16T07:23:27.002Z,23.73
2019-01-16T07:26:32.805Z,22.73
2019-01-16T07:29:35.475Z,21.20
2019-01-16T07:32:21.731Z,24.07
2019-01-16T07:35:04.193Z,26.60
2019-01-16T07:37:49.994Z,23.87
2019-01-16T07:40:49.209Z,25.40
2019-01-16T07:43:35.569Z,27.00
2019-01-16T07:46:28.757Z,24.55
2019-01-16T07:49:14.870Z,25.70
2019-01-16T07:52:12.810Z,25.52
2019-01-16T07:54:59.302Z,24.65
2019-01-16T07:57:49.803Z,28.50
2019-01-16T08:00:35.859Z,25.25
2019-01-16T08:03:29.013Z,28.95
2019-01-16T08:06:17.266Z,24.00
2019-01-16T08:09:03.681Z,26.07
2019-01-16T08:11:50.317Z,27.30
2019-01-16T08:14:46.968Z,26.65
2019-01-16T08:17:33.148Z,27.70
2019-01-16T08:20:30.921Z,32.58
2019-01-16T08:23:17.219Z,29.37
2019-01-16T08:26:01.221Z,27.82
2019-01-16T08:28:54.894Z,31.12
2019-01-16T08:31:51.329Z,28.95
2019-01-16T08:34:37.136Z,30.55
2019-01-16T08:37:27.308Z,29.00
2019-01-16T08:40:17.685Z,29.17
2019-01-16T08:43:03.441Z,34.10
2019-01-16T08:45:49.605Z,29.50
2019-01-16T08:48:36.065Z,28.30
2019-01-16T08:51:21.914Z,28.27
2019-01-16T08:54:18.180Z,29.10
2019-01-16T08:57:05.337Z,26.75
2019-01-16T09:00:10.681Z,26.65
2019-01-16T09:03:00.605Z,27.00
2019-01-16T09:05:45.493Z,28.07
2019-01-16T09:08:37.091Z,25.85
2019-01-16T09:11:18.416Z,25.35
2019-01-16T09:14:03.971Z,25.77
2019-01-16T09:16:50.051Z,24.93
2019-01-16T09:19:27.471Z,26.30
2019-01-16T09:22:10.671Z,24.40
2019-01-16T09:24:58.058Z,24.40
2019-01-16T09:27:54.312Z,26.40
2019-01-16T09:30:41.538Z,25.47
2019-01-16T09:33:27.647Z,26.10
2019-01-16T09:36:17.693Z,25.77
2019-01-16T09:39:05.569Z,24.30
2019-01-16T09:41:52.983Z,25.75
2019-01-16T09:44:49.263Z,25.50
2019-01-16T09:47:37.999Z,38.10
2019-01-16T09:50:23.915Z,24.10
2019-01-16T09:53:21.289Z,25.02
2019-01-16T09:56:23.468Z,22.73
2019-01-16T09:59:11.246Z,22.82
2019-01-16T10:02:16.793Z,25.43
2019-01-16T10:04:54.429Z,21.35
2019-01-16T10:07:40.693Z,23.00
2019-01-16T10:10:27.501Z,21.80
2019-01-16T10:13:13.615Z,19.67
2019-01-16T10:16:14.329Z,23.25
2019-01-16T10:19:04.562Z,21.00
2019-01-16T10:21:47.768Z,21.07
2019-01-16T10:24:44.561Z,20.75
2019-01-16T10:27:32.191Z,19.45
2019-01-16T10:30:20.602Z,18.70
2019-01-16T10:33:20.096Z,19.17
2019-01-16T10:36:10.172Z,20.20
2019-01-16T10:38:56.571Z,18.42
2019-01-16T10:41:43.776Z,18.70
2019-01-16T10:44:33.572Z,20.23
2019-01-16T10:47:19.774Z,19.60
2019-01-16T10:50:16.455Z,18.77
2019-01-16T10:53:04.350Z,19.30
2019-01-16T10:56:02.111Z,19.23
2019-01-16T10:58:58.131Z,21.40
2019-01-16T11:01:48.074Z,17.60
2019-01-16T11:04:50.365Z,18.00
2019-01-16T11:07:46.775Z,17.57
2019-01-16T11:10:33.039Z,17.30
2019-01-16T11:13:35.269Z,16.82
2019-01-16T11:16:20.623Z,16.73
2019-01-16T11:19:07.713Z,17.50
2019-01-16T11:21:57.327Z,15.78
2019-01-16T11:24:47.789Z,15.80
2019-01-16T11:27:26.884Z,14.73
2019-01-16T11:30:13.053Z,15.18
2019-01-16T11:33:04.528Z,15.40
2019-01-16T11:35:50.413Z,15.13
2019-01-16T11:38:40.671Z,14.15
2019-01-16T11:41:26.864Z,14.38
2019-01-16T11:44:23.211Z,13.70
2019-01-16T11:47:16.754Z,13.40
2019-01-16T11:50:15.908Z,13.83
2019-01-16T11:53:18.503Z,13.90
2019-01-16T11:56:05.113Z,14.80
2019-01-16T11:59:11.068Z,14.30
2019-01-16T12:01:57.574Z,13.38
2019-01-16T12:04:36.188Z,13.78
2019-01-16T12:07:26.464Z,13.98
2019-01-16T12:10:13.765Z,13.30
2019-01-16T12:12:50.985Z,13.00
2019-01-16T12:15:38.197Z,12.70
2019-01-16T12:18:40.836Z,12.88
2019-01-16T12:21:27.790Z,13.35
2019-01-16T12:24:13.830Z,16.00
2019-01-16T12:27:07.144Z,15.60
2019-01-16T12:29:54.404Z,14.93
2019-01-16T12:32:41.573Z,15.35
2019-01-16T12:35:22.195Z,17.25
2019-01-16T12:38:21.847Z,15.25
2019-01-16T12:41:14.789Z,16.63
2019-01-16T12:43:53.818Z,15.30
2019-01-16T12:46:41.869Z,14.95
2019-01-16T12:49:29.648Z,14.45
2019-01-16T12:52:16.212Z,15.18
2019-01-16T12:55:12.346Z,14.30
2019-01-16T12:58:04.804Z,14.65
2019-01-16T13:00:45.716Z,13.22
2019-01-16T13:03:26.811Z,13.70
2019-01-16T13:06:17.009Z,12.58
2019-01-16T13:09:14.740Z,12.30
2019-01-16T13:12:02.372Z,12.00
2019-01-16T13:14:55.313Z,12.28
2019-01-16T13:17:41.347Z,12.65
2019-01-16T13:20:30.899Z,12.00
2019-01-16T13:23:24.460Z,12.40
2019-01-16T13:26:25.275Z,12.40
2019-01-16T13:29:18.356Z,11.65
2019-01-16T13:32:10.679Z,12.55
2019-01-16T13:35:13.142Z,11.08
2019-01-16T13:38:00.239Z,10.70
2019-01-16T13:40:49.772Z,12.23
2019-01-16T13:43:36.113Z,10.70
2019-01-16T13:46:32.511Z,11.03
2019-01-16T13:49:13.052Z,10.25
2019-01-16T13:52:02.939Z,12.80
2019-01-16T13:55:02.407Z,10.70
2019-01-16T13:57:49.078Z,11.83
2019-01-16T14:00:56.418Z,12.60
2019-01-16T14:03:43.839Z,11.10
2019-01-16T14:06:40.317Z,11.15
2019-01-16T14:09:28.124Z,11.48
2019-01-16T14:12:07.612Z,11.48
2019-01-16T14:15:13.195Z,12.85
2019-01-16T14:17:59.073Z,10.82
2019-01-16T14:20:49.790Z,9.70
2019-01-16T14:23:37.529Z,10.10
2019-01-16T14:26:30.939Z,9.43
2019-01-16T14:29:27.121Z,10.72
2019-01-16T14:32:12.711Z,9.30
2019-01-16T14:34:55.402Z,9.33
2019-01-16T14:37:50.271Z,10.50
2019-01-16T14:40:43.404Z,9.68
2019-01-16T14:43:30.535Z,9.47
2019-01-16T14:46:36.017Z,10.40
2019-01-16T14:49:16.115Z,8.93
2019-01-16T14:52:01.138Z,9.10
2019-01-16T14:54:48.307Z,8.18
2019-01-16T14:57:34.496Z,10.32
2019-01-16T15:00:27.622Z,8.38
2019-01-16T15:03:23.939Z,7.65
2019-01-16T15:06:02.496Z,7.43
2019-01-16T15:09:00.045Z,8.10
2019-01-16T15:11:51.445Z,7.97
2019-01-16T15:14:37.369Z,8.30
2019-01-16T15:17:27.612Z,10.55
2019-01-16T15:20:13.215Z,8.10
2019-01-16T15:22:50.641Z,8.43
2019-01-16T15:25:32.299Z,7.60
2019-01-16T15:28:18.629Z,6.30
2019-01-16T15:31:07.968Z,5.80
2019-01-16T15:34:10.539Z,7.45
2019-01-16T15:36:56.695Z,9.15
2019-01-16T15:39:48.774Z,11.20
2019-01-16T15:42:36.276Z,13.10
2019-01-16T15:45:39.498Z,14.80
2019-01-16T15:48:37.875Z,14.87
2019-01-16T15:51:34.255Z,16.27
2019-01-16T15:54:23.953Z,15.90
2019-01-16T15:57:09.301Z,16.80
2019-01-16T15:59:55.511Z,17.75
2019-01-16T16:02:46.865Z,18.02
2019-01-16T16:05:37.226Z,18.07
2019-01-16T16:08:16.023Z,18.10
2019-01-16T16:11:05.947Z,18.10
2019-01-16T16:13:52.861Z,17.70
2019-01-16T16:16:29.427Z,17.82
2019-01-16T16:19:15.411Z,19.87
2019-01-16T16:22:01.192Z,20.88
2019-01-16T16:24:48.215Z,20.37
2019-01-16T16:27:34.783Z,19.97
2019-01-16T16:30:31.252Z,19.70
2019-01-16T16:33:18.704Z,19.93
2019-01-16T16:36:00.953Z,17.60
2019-01-16T16:38:43.179Z,17.73
2019-01-16T16:41:29.303Z,16.93
2019-01-16T16:44:19.111Z,16.50
2019-01-16T16:47:07.717Z,14.43
2019-01-16T16:49:58.180Z,12.68
2019-01-16T16:53:03.145Z,13.20
2019-01-16T16:55:54.064Z,13.90
2019-01-16T16:58:40.429Z,12.82
2019-01-16T17:01:25.785Z,14.43
2019-01-16T17:03:59.005Z,13.10
2019-01-16T17:06:49.296Z,13.40
2019-01-16T17:09:36.199Z,13.80
2019-01-16T17:12:18.616Z,15.80
2019-01-16T17:15:04.875Z,13.13
2019-01-16T17:17:58.640Z,13.62
2019-01-16T17:20:44.367Z,13.00
2019-01-16T17:23:36.797Z,13.35
2019-01-16T17:26:18.062Z,13.98
2019-01-16T17:29:11.319Z,15.10
2019-01-16T17:32:04.465Z,19.25
2019-01-16T17:34:48.504Z,16.70
2019-01-16T17:37:36.728Z,15.63
2019-01-16T17:40:23.561Z,17.52
2019-01-16T17:43:03.119Z,18.45
2019-01-16T17:46:01.545Z,18.30
2019-01-16T17:49:07.261Z,14.80
2019-01-16T17:52:12.709Z,15.70
2019-01-16T17:55:18.335Z,15.03
2019-01-16T17:58:03.947Z,14.90
2019-01-16T18:00:51.058Z,14.80
2019-01-16T18:03:33.455Z,15.32
2019-01-16T18:06:14.694Z,14.65
2019-01-16T18:08:52.239Z,15.20
2019-01-16T18:11:38.235Z,13.85
2019-01-16T18:14:24.444Z,13.85
2019-01-16T18:17:14.293Z,15.38
2019-01-16T18:19:57.995Z,13.75
2019-01-16T18:22:45.313Z,14.93
2019-01-16T18:25:38.421Z,15.25
2019-01-16T18:28:24.287Z,15.32
2019-01-16T18:31:14.402Z,15.10
2019-01-16T18:34:00.497Z,18.82
2019-01-16T18:36:46.507Z,13.95
2019-01-16T18:39:32.657Z,14.73
2019-01-16T18:42:20.436Z,15.53
2019-01-16T18:45:02.725Z,14.90
2019-01-16T18:47:48.206Z,15.75
2019-01-16T18:50:47.535Z,15.13
2019-01-16T18:53:34.637Z,17.17
2019-01-16T18:56:21.846Z,14.20
2019-01-16T18:59:07.632Z,17.10
2019-01-16T19:02:04.069Z,14.00
2019-01-16T19:04:57.498Z,16.35
2019-01-16T19:07:43.273Z,15.53
2019-01-16T19:10:24.319Z,15.40
2019-01-16T19:13:17.960Z,13.93
2019-01-16T19:16:00.033Z,13.28
2019-01-16T19:18:52.200Z,13.22
2019-01-16T19:21:39.273Z,13.20
2019-01-16T19:24:43.304Z,14.00
2019-01-16T19:27:25.507Z,14.47
2019-01-16T19:30:13.093Z,15.85
2019-01-16T19:32:53.903Z,14.68
2019-01-16T19:35:40.073Z,15.78
2019-01-16T19:38:36.497Z,14.65
2019-01-16T19:41:33.121Z,13.03
2019-01-16T19:44:23.637Z,13.18
2019-01-16T19:47:13.085Z,12.82
2019-01-16T19:49:55.154Z,13.85
2019-01-16T19:52:51.125Z,12.95
2019-01-16T19:55:44.820Z,13.35
2019-01-16T19:58:50.447Z,13.25
2019-01-16T20:01:37.928Z,13.95
2019-01-16T20:04:16.688Z,11.05
2019-01-16T20:07:18.986Z,12.80
2019-01-16T20:09:58.981Z,15.30
2019-01-16T20:12:53.060Z,13.00
2019-01-16T20:15:33.466Z,13.80
2019-01-16T20:18:19.273Z,15.53
2019-01-16T20:21:13.149Z,18.67
2019-01-16T20:24:03.219Z,17.02
2019-01-16T20:26:50.800Z,15.15
2019-01-16T20:29:34.576Z,17.52
2019-01-16T20:32:24.707Z,18.25
2019-01-16T20:35:11.795Z,18.37
2019-01-16T20:37:57.993Z,19.52
2019-01-16T20:40:43.768Z,19.15
2019-01-16T20:43:46.057Z,18.20
2019-01-16T20:46:51.471Z,19.07
2019-01-16T20:49:37.558Z,22.85
2019-01-16T20:52:34.096Z,23.18
2019-01-16T20:55:20.435Z,19.45
2019-01-16T20:58:26.618Z,20.30
2019-01-16T21:01:25.967Z,21.68
2019-01-16T21:04:17.959Z,22.00
2019-01-16T21:06:57.080Z,20.55
2019-01-16T21:09:41.619Z,21.65
2019-01-16T21:12:27.626Z,19.62
2019-01-16T21:15:13.783Z,21.12
2019-01-16T21:18:00.366Z,23.35
2019-01-16T21:20:46.148Z,20.27
2019-01-16T21:23:45.007Z,22.35
2019-01-16T21:26:30.899Z,17.27
2019-01-16T21:29:18.087Z,19.17
2019-01-16T21:32:05.145Z,20.02
2019-01-16T21:34:50.462Z,19.65
2019-01-16T21:37:27.343Z,18.70
2019-01-16T21:40:13.099Z,18.27
2019-01-16T21:42:58.216Z,20.32
2019-01-16T21:45:51.018Z,19.27
2019-01-16T21:48:34.129Z,17.85
2019-01-16T21:51:12.043Z,19.17
2019-01-16T21:53:52.279Z,20.02
2019-01-16T21:56:48.504Z,17.57
2019-01-16T21:59:35.120Z,19.12
2019-01-16T22:02:22.489Z,18.07
2019-01-16T22:05:09.245Z,19.95
2019-01-16T22:07:47.815Z,20.85
2019-01-16T22:10:39.501Z,20.15
2019-01-16T22:13:16.692Z,18.17
2019-01-16T22:16:13.532Z,19.92
2019-01-16T22:19:05.141Z,19.90
2019-01-16T22:21:53.617Z,20.23
2019-01-16T22:24:39.825Z,17.95
2019-01-16T22:27:29.824Z,20.55
2019-01-16T22:30:26.554Z,19.23
2019-01-16T22:33:14.532Z,20.62
2019-01-16T22:36:00.384Z,19.42
2019-01-16T22:38:46.168Z,18.60
2019-01-16T22:41:31.941Z,20.40
2019-01-16T22:44:08.649Z,21.17
2019-01-16T22:46:58.464Z,20.12
2019-01-16T22:49:51.919Z,19.70
2019-01-16T22:52:41.864Z,16.80
2019-01-16T22:55:32.023Z,17.42
2019-01-16T22:58:29.416Z,19.73
2019-01-16T23:01:20.411Z,17.98
2019-01-16T23:04:07.527Z,21.00
2019-01-16T23:06:48.090Z,20.97
2019-01-16T23:09:34.185Z,18.98
2019-01-16T23:12:20.441Z,16.42
2019-01-16T23:15:06.430Z,16.80
2019-01-16T23:17:53.642Z,18.60
2019-01-16T23:20:35.289Z,18.05
2019-01-16T23:23:28.374Z,16.02
2019-01-16T23:26:15.242Z,16.12
2019-01-16T23:29:02.298Z,16.87
2019-01-16T23:31:43.312Z,16.57
2019-01-16T23:34:30.394Z,16.27
2019-01-16T23:37:09.022Z,17.02
2019-01-16T23:39:59.024Z,18.50
2019-01-16T23:42:45.076Z,21.12
2019-01-16T23:45:41.951Z,17.60
2019-01-16T23:48:41.511Z,18.27
2019-01-16T23:51:27.476Z,19.52
2019-01-16T23:54:17.579Z,20.92
2019-01-16T23:56:59.921Z,17.85
2019-01-16T23:59:45.712Z,17.43
